Merritt, Canada
Current Conditions -  °F | °C
As of 6:00 PM on Wednesday 22 Oct 2014 (Local Time) from CWLY Reporting Station
Broken Clouds Broken Clouds  
Wind Chill: 50°   Ceiling: 6500
Heat Index: 50°   Visibility: 9mi
Dew Point: 45°   Wind: 5mph
Humidity: 82%   Direction: 150°SSE
Pressure: 29.56"   Gusts: NA
Location:  50.11°N, 120.79°W
Report Text: CWLY 230100Z AUTO 15004KT 110V180 9SM BKN065 BKN074 BKN150 10/07 A2956 RMK PRESFR SLP014
Loading
Personal Weather Stations






























Interactive Weather Map
Tropical Storm Tracking
New forecast layout! Learn more

10-Day Weather Forecast

Advertisements
Track Severe Weather on mobile